sensor_id;sensor_type;location;lat;lon;timestamp;P1;durP1;ratioP1;P2;durP2;ratioP2
9178;SDS011;4624;48.126;11.546;2023-02-01T00:01:44;2.87;;;1.80;;
9178;SDS011;4624;48.126;11.546;2023-02-01T00:04:11;2.63;;;1.40;;
9178;SDS011;4624;48.126;11.546;2023-02-01T00:06:38;1.57;;;1.47;;
9178;SDS011;4624;48.126;11.546;2023-02-01T00:09:05;2.77;;;1.53;;
9178;SDS011;4624;48.126;11.546;2023-02-01T00:11:32;1.90;;;1.40;;
9178;SDS011;4624;48.126;11.546;2023-02-01T00:14:00;2.47;;;1.67;;
9178;SDS011;4624;48.126;11.546;2023-02-01T00:16:28;1.80;;;1.30;;
9178;SDS011;4624;48.126;11.546;2023-02-01T00:18:56;4.37;;;1.63;;
9178;SDS011;4624;48.126;11.546;2023-02-01T00:21:25;2.30;;;1.40;;
9178;SDS011;4624;48.126;11.546;2023-02-01T00:23:52;2.03;;;1.67;;
9178;SDS011;4624;48.126;11.546;2023-02-01T00:26:20;1.50;;;1.40;;
9178;SDS011;4624;48.126;11.546;2023-02-01T00:28:51;2.50;;;1.57;;
9178;SDS011;4624;48.126;11.546;2023-02-01T00:31:20;4.63;;;1.20;;
9178;SDS011;4624;48.126;11.546;2023-02-01T00:33:47;1.73;;;1.47;;
9178;SDS011;4624;48.126;11.546;2023-02-01T00:36:13;1.80;;;1.20;;
9178;SDS011;4624;48.126;11.546;2023-02-01T00:38:40;1.77;;;1.40;;
9178;SDS011;4624;48.126;11.546;2023-02-01T00:41:10;1.63;;;1.13;;
9178;SDS011;4624;48.126;11.546;2023-02-01T00:43:38;1.63;;;1.53;;
9178;SDS011;4624;48.126;11.546;2023-02-01T00:46:05;1.47;;;1.33;;
9178;SDS011;4624;48.126;11.546;2023-02-01T00:48:33;2.13;;;1.37;;
9178;SDS011;4624;48.126;11.546;2023-02-01T00:51:00;1.20;;;1.10;;
9178;SDS011;4624;48.126;11.546;2023-02-01T00:53:28;2.30;;;1.67;;
9178;SDS011;4624;48.126;11.546;2023-02-01T00:55:55;4.60;;;1.93;;
9178;SDS011;4624;48.126;11.546;2023-02-01T00:58:23;2.93;;;1.87;;
9178;SDS011;4624;48.126;11.546;2023-02-01T01:00:56;2.40;;;1.67;;
9178;SDS011;4624;48.126;11.546;2023-02-01T01:03:28;2.27;;;1.73;;
9178;SDS011;4624;48.126;11.546;2023-02-01T01:06:00;2.90;;;1.70;;
9178;SDS011;4624;48.126;11.546;2023-02-01T01:08:28;5.13;;;2.07;;
9178;SDS011;4624;48.126;11.546;2023-02-01T01:10:54;2.20;;;1.73;;
9178;SDS011;4624;48.126;11.546;2023-02-01T01:13:22;2.00;;;1.73;;
9178;SDS011;4624;48.126;11.546;2023-02-01T01:15:48;3.17;;;2.20;;
9178;SDS011;4624;48.126;11.546;2023-02-01T01:18:15;2.10;;;1.90;;
9178;SDS011;4624;48.126;11.546;2023-02-01T01:20:42;2.77;;;2.27;;
9178;SDS011;4624;48.126;11.546;2023-02-01T01:23:10;2.03;;;1.80;;
9178;SDS011;4624;48.126;11.546;2023-02-01T01:25:37;3.73;;;2.10;;
9178;SDS011;4624;48.126;11.546;2023-02-01T01:28:05;3.40;;;2.50;;
9178;SDS011;4624;48.126;11.546;2023-02-01T01:30:32;2.53;;;2.03;;
9178;SDS011;4624;48.126;11.546;2023-02-01T01:32:59;2.13;;;1.90;;
9178;SDS011;4624;48.126;11.546;2023-02-01T01:35:28;2.50;;;2.30;;
9178;SDS011;4624;48.126;11.546;2023-02-01T01:37:55;2.20;;;1.80;;
9178;SDS011;4624;48.126;11.546;2023-02-01T01:40:24;2.70;;;2.37;;
9178;SDS011;4624;48.126;11.546;2023-02-01T01:42:50;3.30;;;2.07;;
9178;SDS011;4624;48.126;11.546;2023-02-01T01:45:21;1.90;;;1.80;;
9178;SDS011;4624;48.126;11.546;2023-02-01T01:47:51;2.73;;;2.50;;
9178;SDS011;4624;48.126;11.546;2023-02-01T01:50:21;2.30;;;1.93;;
9178;SDS011;4624;48.126;11.546;2023-02-01T01:52:51;3.47;;;2.67;;
9178;SDS011;4624;48.126;11.546;2023-02-01T01:55:20;2.93;;;2.60;;
9178;SDS011;4624;48.126;11.546;2023-02-01T01:57:52;2.83;;;2.43;;
9178;SDS011;4624;48.126;11.546;2023-02-01T02:00:23;4.13;;;2.83;;
9178;SDS011;4624;48.126;11.546;2023-02-01T02:02:52;4.00;;;3.00;;
9178;SDS011;4624;48.126;11.546;2023-02-01T02:05:23;3.53;;;3.20;;
9178;SDS011;4624;48.126;11.546;2023-02-01T02:07:50;2.97;;;2.17;;
9178;SDS011;4624;48.126;11.546;2023-02-01T02:10:19;3.57;;;2.90;;
9178;SDS011;4624;48.126;11.546;2023-02-01T02:12:46;3.73;;;2.73;;
9178;SDS011;4624;48.126;11.546;2023-02-01T02:15:16;3.50;;;2.70;;
9178;SDS011;4624;48.126;11.546;2023-02-01T02:17:44;3.47;;;2.77;;
9178;SDS011;4624;48.126;11.546;2023-02-01T02:20:22;3.40;;;2.87;;
9178;SDS011;4624;48.126;11.546;2023-02-01T02:23:29;3.07;;;2.73;;
9178;SDS011;4624;48.126;11.546;2023-02-01T02:26:31;3.60;;;2.50;;
9178;SDS011;4624;48.126;11.546;2023-02-01T02:32:12;2.93;;;2.63;;
9178;SDS011;4624;48.126;11.546;2023-02-01T02:35:00;3.77;;;3.00;;
9178;SDS011;4624;48.126;11.546;2023-02-01T02:37:32;3.43;;;3.00;;
9178;SDS011;4624;48.126;11.546;2023-02-01T02:40:07;3.27;;;2.67;;
9178;SDS011;4624;48.126;11.546;2023-02-01T02:42:42;4.00;;;3.10;;
9178;SDS011;4624;48.126;11.546;2023-02-01T02:45:33;4.63;;;3.00;;
9178;SDS011;4624;48.126;11.546;2023-02-01T02:48:25;3.33;;;3.00;;
9178;SDS011;4624;48.126;11.546;2023-02-01T02:50:58;3.07;;;2.40;;
9178;SDS011;4624;48.126;11.546;2023-02-01T02:53:48;3.70;;;2.73;;
9178;SDS011;4624;48.126;11.546;2023-02-01T02:56:40;2.80;;;2.57;;
9178;SDS011;4624;48.126;11.546;2023-02-01T02:59:25;3.27;;;2.50;;
9178;SDS011;4624;48.126;11.546;2023-02-01T03:02:11;3.43;;;2.80;;
9178;SDS011;4624;48.126;11.546;2023-02-01T03:04:57;3.77;;;2.77;;
9178;SDS011;4624;48.126;11.546;2023-02-01T03:10:24;3.47;;;2.73;;
9178;SDS011;4624;48.126;11.546;2023-02-01T03:12:59;3.93;;;2.57;;
9178;SDS011;4624;48.126;11.546;2023-02-01T03:15:30;3.60;;;2.70;;
9178;SDS011;4624;48.126;11.546;2023-02-01T03:18:02;3.37;;;2.33;;
9178;SDS011;4624;48.126;11.546;2023-02-01T03:20:35;3.47;;;2.43;;
9178;SDS011;4624;48.126;11.546;2023-02-01T03:23:07;2.80;;;2.60;;
9178;SDS011;4624;48.126;11.546;2023-02-01T03:25:34;3.73;;;2.83;;
9178;SDS011;4624;48.126;11.546;2023-02-01T03:28:02;3.10;;;2.77;;
9178;SDS011;4624;48.126;11.546;2023-02-01T03:30:32;3.50;;;2.20;;
9178;SDS011;4624;48.126;11.546;2023-02-01T03:33:04;2.87;;;2.43;;
9178;SDS011;4624;48.126;11.546;2023-02-01T03:35:39;2.53;;;2.03;;
9178;SDS011;4624;48.126;11.546;2023-02-01T03:38:13;2.30;;;1.90;;
9178;SDS011;4624;48.126;11.546;2023-02-01T03:40:52;2.70;;;1.80;;
9178;SDS011;4624;48.126;11.546;2023-02-01T03:43:24;3.43;;;2.30;;
9178;SDS011;4624;48.126;11.546;2023-02-01T03:45:54;2.80;;;1.93;;
9178;SDS011;4624;48.126;11.546;2023-02-01T03:48:25;3.20;;;2.17;;
9178;SDS011;4624;48.126;11.546;2023-02-01T03:50:55;2.07;;;1.87;;
9178;SDS011;4624;48.126;11.546;2023-02-01T03:53:26;2.53;;;1.90;;
9178;SDS011;4624;48.126;11.546;2023-02-01T03:55:55;2.40;;;2.20;;
9178;SDS011;4624;48.126;11.546;2023-02-01T03:58:22;2.40;;;2.10;;
9178;SDS011;4624;48.126;11.546;2023-02-01T04:00:50;2.63;;;2.03;;
9178;SDS011;4624;48.126;11.546;2023-02-01T04:03:19;2.40;;;2.20;;
9178;SDS011;4624;48.126;11.546;2023-02-01T04:05:46;2.50;;;2.30;;
9178;SDS011;4624;48.126;11.546;2023-02-01T04:08:13;3.40;;;1.83;;
9178;SDS011;4624;48.126;11.546;2023-02-01T04:10:42;2.90;;;2.40;;
9178;SDS011;4624;48.126;11.546;2023-02-01T04:13:09;3.83;;;2.30;;
9178;SDS011;4624;48.126;11.546;2023-02-01T04:15:36;2.50;;;2.27;;
9178;SDS011;4624;48.126;11.546;2023-02-01T04:18:03;2.50;;;2.10;;
9178;SDS011;4624;48.126;11.546;2023-02-01T04:20:30;3.27;;;2.20;;
9178;SDS011;4624;48.126;11.546;2023-02-01T04:22:57;2.37;;;2.17;;
9178;SDS011;4624;48.126;11.546;2023-02-01T04:25:24;3.50;;;2.93;;
9178;SDS011;4624;48.126;11.546;2023-02-01T04:27:52;2.70;;;2.27;;
9178;SDS011;4624;48.126;11.546;2023-02-01T04:30:19;2.13;;;1.93;;
9178;SDS011;4624;48.126;11.546;2023-02-01T04:32:45;4.00;;;2.50;;
9178;SDS011;4624;48.126;11.546;2023-02-01T04:35:12;2.87;;;2.40;;
9178;SDS011;4624;48.126;11.546;2023-02-01T04:37:39;3.10;;;2.17;;
9178;SDS011;4624;48.126;11.546;2023-02-01T04:40:06;2.83;;;2.20;;
9178;SDS011;4624;48.126;11.546;2023-02-01T04:42:34;3.93;;;1.70;;
9178;SDS011;4624;48.126;11.546;2023-02-01T04:45:02;3.30;;;2.20;;
9178;SDS011;4624;48.126;11.546;2023-02-01T04:47:29;3.60;;;2.20;;
9178;SDS011;4624;48.126;11.546;2023-02-01T04:49:56;2.90;;;2.60;;
9178;SDS011;4624;48.126;11.546;2023-02-01T04:52:23;2.73;;;2.33;;
9178;SDS011;4624;48.126;11.546;2023-02-01T04:54:49;2.70;;;2.33;;
9178;SDS011;4624;48.126;11.546;2023-02-01T04:57:19;2.80;;;2.37;;
9178;SDS011;4624;48.126;11.546;2023-02-01T04:59:45;2.40;;;2.20;;
9178;SDS011;4624;48.126;11.546;2023-02-01T05:02:13;2.47;;;2.23;;
9178;SDS011;4624;48.126;11.546;2023-02-01T05:04:40;3.07;;;2.60;;
9178;SDS011;4624;48.126;11.546;2023-02-01T05:07:07;2.77;;;2.57;;
9178;SDS011;4624;48.126;11.546;2023-02-01T05:09:34;3.20;;;2.83;;
9178;SDS011;4624;48.126;11.546;2023-02-01T05:12:00;3.00;;;2.70;;
9178;SDS011;4624;48.126;11.546;2023-02-01T05:14:44;4.83;;;3.00;;
9178;SDS011;4624;48.126;11.546;2023-02-01T05:17:14;4.10;;;2.80;;
9178;SDS011;4624;48.126;11.546;2023-02-01T05:19:40;2.83;;;2.47;;
9178;SDS011;4624;48.126;11.546;2023-02-01T05:22:07;3.10;;;2.80;;
9178;SDS011;4624;48.126;11.546;2023-02-01T05:24:34;6.00;;;2.50;;
9178;SDS011;4624;48.126;11.546;2023-02-01T05:27:01;3.87;;;2.83;;
9178;SDS011;4624;48.126;11.546;2023-02-01T05:29:27;4.87;;;3.13;;
9178;SDS011;4624;48.126;11.546;2023-02-01T05:31:54;3.17;;;2.50;;
9178;SDS011;4624;48.126;11.546;2023-02-01T05:34:22;2.97;;;2.50;;
9178;SDS011;4624;48.126;11.546;2023-02-01T05:36:49;2.70;;;2.30;;
9178;SDS011;4624;48.126;11.546;2023-02-01T05:39:16;3.53;;;2.60;;
9178;SDS011;4624;48.126;11.546;2023-02-01T05:41:43;3.13;;;2.60;;
9178;SDS011;4624;48.126;11.546;2023-02-01T05:44:09;4.10;;;3.13;;
9178;SDS011;4624;48.126;11.546;2023-02-01T05:46:36;3.10;;;2.80;;
9178;SDS011;4624;48.126;11.546;2023-02-01T05:49:03;3.90;;;2.83;;
9178;SDS011;4624;48.126;11.546;2023-02-01T05:51:31;2.67;;;2.30;;
9178;SDS011;4624;48.126;11.546;2023-02-01T05:53:58;3.37;;;2.63;;
9178;SDS011;4624;48.126;11.546;2023-02-01T05:56:25;4.00;;;2.60;;
9178;SDS011;4624;48.126;11.546;2023-02-01T05:58:52;2.83;;;2.50;;
9178;SDS011;4624;48.126;11.546;2023-02-01T06:01:19;2.87;;;2.40;;
9178;SDS011;4624;48.126;11.546;2023-02-01T06:03:45;4.40;;;2.27;;
9178;SDS011;4624;48.126;11.546;2023-02-01T06:06:12;5.10;;;3.07;;
9178;SDS011;4624;48.126;11.546;2023-02-01T06:08:40;4.27;;;2.77;;
9178;SDS011;4624;48.126;11.546;2023-02-01T06:11:07;3.43;;;2.50;;
9178;SDS011;4624;48.126;11.546;2023-02-01T06:13:34;2.67;;;2.40;;
9178;SDS011;4624;48.126;11.546;2023-02-01T06:16:03;3.90;;;2.67;;
9178;SDS011;4624;48.126;11.546;2023-02-01T06:18:32;4.13;;;2.80;;
9178;SDS011;4624;48.126;11.546;2023-02-01T06:20:59;4.83;;;2.73;;
9178;SDS011;4624;48.126;11.546;2023-02-01T06:23:26;4.27;;;2.53;;
9178;SDS011;4624;48.126;11.546;2023-02-01T06:25:59;3.97;;;2.70;;
9178;SDS011;4624;48.126;11.546;2023-02-01T06:28:27;4.50;;;2.20;;
9178;SDS011;4624;48.126;11.546;2023-02-01T06:30:54;4.20;;;2.53;;
9178;SDS011;4624;48.126;11.546;2023-02-01T06:33:23;3.20;;;2.70;;
9178;SDS011;4624;48.126;11.546;2023-02-01T06:35:56;3.47;;;2.67;;
9178;SDS011;4624;48.126;11.546;2023-02-01T06:38:23;3.53;;;3.17;;
9178;SDS011;4624;48.126;11.546;2023-02-01T06:40:51;4.63;;;2.70;;
9178;SDS011;4624;48.126;11.546;2023-02-01T06:43:20;3.80;;;3.03;;
9178;SDS011;4624;48.126;11.546;2023-02-01T06:45:47;3.30;;;3.00;;
9178;SDS011;4624;48.126;11.546;2023-02-01T06:48:14;2.70;;;2.50;;
9178;SDS011;4624;48.126;11.546;2023-02-01T06:50:41;4.40;;;2.70;;
9178;SDS011;4624;48.126;11.546;2023-02-01T06:53:07;3.57;;;2.93;;
9178;SDS011;4624;48.126;11.546;2023-02-01T06:55:34;3.73;;;2.47;;
9178;SDS011;4624;48.126;11.546;2023-02-01T06:58:01;4.90;;;2.23;;
9178;SDS011;4624;48.126;11.546;2023-02-01T07:00:29;4.43;;;2.70;;
9178;SDS011;4624;48.126;11.546;2023-02-01T07:02:57;3.00;;;2.57;;
9178;SDS011;4624;48.126;11.546;2023-02-01T07:05:24;2.37;;;2.17;;
9178;SDS011;4624;48.126;11.546;2023-02-01T07:07:50;2.87;;;2.33;;
9178;SDS011;4624;48.126;11.546;2023-02-01T07:10:17;2.70;;;2.50;;
9178;SDS011;4624;48.126;11.546;2023-02-01T07:12:44;5.00;;;2.53;;
9178;SDS011;4624;48.126;11.546;2023-02-01T07:15:11;2.73;;;2.27;;
9178;SDS011;4624;48.126;11.546;2023-02-01T07:17:39;2.10;;;1.90;;
9178;SDS011;4624;48.126;11.546;2023-02-01T07:20:06;2.43;;;2.10;;
9178;SDS011;4624;48.126;11.546;2023-02-01T07:22:34;2.50;;;2.07;;
9178;SDS011;4624;48.126;11.546;2023-02-01T07:25:01;3.50;;;1.97;;
9178;SDS011;4624;48.126;11.546;2023-02-01T07:27:27;2.40;;;1.93;;
9178;SDS011;4624;48.126;11.546;2023-02-01T07:29:54;2.90;;;2.37;;
9178;SDS011;4624;48.126;11.546;2023-02-01T07:32:21;3.00;;;2.00;;
9178;SDS011;4624;48.126;11.546;2023-02-01T07:34:49;1.70;;;1.60;;
9178;SDS011;4624;48.126;11.546;2023-02-01T07:37:16;2.07;;;1.83;;
9178;SDS011;4624;48.126;11.546;2023-02-01T07:39:43;1.97;;;1.80;;
9178;SDS011;4624;48.126;11.546;2023-02-01T07:42:10;2.53;;;1.50;;
9178;SDS011;4624;48.126;11.546;2023-02-01T07:44:36;1.53;;;1.43;;
9178;SDS011;4624;48.126;11.546;2023-02-01T07:47:03;2.50;;;1.30;;
9178;SDS011;4624;48.126;11.546;2023-02-01T07:49:30;1.60;;;1.40;;
9178;SDS011;4624;48.126;11.546;2023-02-01T07:51:58;2.63;;;1.37;;
9178;SDS011;4624;48.126;11.546;2023-02-01T07:54:25;2.03;;;1.70;;
9178;SDS011;4624;48.126;11.546;2023-02-01T07:56:51;2.90;;;1.60;;
9178;SDS011;4624;48.126;11.546;2023-02-01T07:59:18;1.50;;;1.40;;
9178;SDS011;4624;48.126;11.546;2023-02-01T08:01:45;1.33;;;1.20;;
9178;SDS011;4624;48.126;11.546;2023-02-01T08:04:11;1.57;;;1.30;;
9178;SDS011;4624;48.126;11.546;2023-02-01T08:06:39;2.80;;;1.50;;
9178;SDS011;4624;48.126;11.546;2023-02-01T08:09:07;1.10;;;1.00;;
9178;SDS011;4624;48.126;11.546;2023-02-01T08:11:35;1.60;;;1.27;;
9178;SDS011;4624;48.126;11.546;2023-02-01T08:14:03;2.03;;;1.40;;
9178;SDS011;4624;48.126;11.546;2023-02-01T08:16:30;1.67;;;1.57;;
9178;SDS011;4624;48.126;11.546;2023-02-01T08:18:58;2.17;;;1.30;;
9178;SDS011;4624;48.126;11.546;2023-02-01T08:21:26;2.80;;;1.43;;
9178;SDS011;4624;48.126;11.546;2023-02-01T08:24:01;1.47;;;1.30;;
9178;SDS011;4624;48.126;11.546;2023-02-01T08:26:31;1.30;;;1.20;;
9178;SDS011;4624;48.126;11.546;2023-02-01T08:28:59;1.67;;;1.23;;
9178;SDS011;4624;48.126;11.546;2023-02-01T08:31:28;1.53;;;1.10;;
9178;SDS011;4624;48.126;11.546;2023-02-01T08:33:56;1.47;;;1.37;;
9178;SDS011;4624;48.126;11.546;2023-02-01T08:36:24;1.57;;;1.47;;
9178;SDS011;4624;48.126;11.546;2023-02-01T08:38:51;2.30;;;1.50;;
9178;SDS011;4624;48.126;11.546;2023-02-01T08:41:19;1.57;;;1.47;;
9178;SDS011;4624;48.126;11.546;2023-02-01T08:43:49;1.40;;;1.30;;
9178;SDS011;4624;48.126;11.546;2023-02-01T08:46:16;2.43;;;1.37;;
9178;SDS011;4624;48.126;11.546;2023-02-01T08:48:44;1.47;;;1.23;;
9178;SDS011;4624;48.126;11.546;2023-02-01T08:51:12;1.77;;;1.50;;
9178;SDS011;4624;48.126;11.546;2023-02-01T08:53:41;1.10;;;1.00;;
9178;SDS011;4624;48.126;11.546;2023-02-01T08:56:08;2.30;;;1.43;;
9178;SDS011;4624;48.126;11.546;2023-02-01T08:58:36;3.53;;;1.60;;
9178;SDS011;4624;48.126;11.546;2023-02-01T09:01:04;1.90;;;1.13;;
9178;SDS011;4624;48.126;11.546;2023-02-01T09:03:32;1.23;;;1.03;;
9178;SDS011;4624;48.126;11.546;2023-02-01T09:06:00;1.40;;;1.30;;
9178;SDS011;4624;48.126;11.546;2023-02-01T09:08:27;2.20;;;1.40;;
9178;SDS011;4624;48.126;11.546;2023-02-01T09:10:57;2.33;;;1.67;;
9178;SDS011;4624;48.126;11.546;2023-02-01T09:13:24;1.43;;;1.03;;
9178;SDS011;4624;48.126;11.546;2023-02-01T09:15:51;2.90;;;1.03;;
9178;SDS011;4624;48.126;11.546;2023-02-01T09:18:19;1.60;;;1.20;;
9178;SDS011;4624;48.126;11.546;2023-02-01T09:20:46;1.40;;;1.20;;
9178;SDS011;4624;48.126;11.546;2023-02-01T09:23:13;2.80;;;1.30;;
9178;SDS011;4624;48.126;11.546;2023-02-01T09:25:39;2.23;;;1.30;;
9178;SDS011;4624;48.126;11.546;2023-02-01T09:28:06;1.70;;;1.37;;
9178;SDS011;4624;48.126;11.546;2023-02-01T09:30:34;2.50;;;1.40;;
9178;SDS011;4624;48.126;11.546;2023-02-01T09:33:01;2.27;;;1.23;;
9178;SDS011;4624;48.126;11.546;2023-02-01T09:35:29;1.93;;;1.20;;
9178;SDS011;4624;48.126;11.546;2023-02-01T09:37:56;1.30;;;1.13;;
9178;SDS011;4624;48.126;11.546;2023-02-01T09:40:23;4.17;;;1.47;;
9178;SDS011;4624;48.126;11.546;2023-02-01T09:42:57;2.80;;;1.13;;
9178;SDS011;4624;48.126;11.546;2023-02-01T09:45:38;2.40;;;1.07;;
9178;SDS011;4624;48.126;11.546;2023-02-01T09:48:11;1.90;;;1.50;;
9178;SDS011;4624;48.126;11.546;2023-02-01T09:50:43;1.40;;;1.30;;
9178;SDS011;4624;48.126;11.546;2023-02-01T09:53:15;1.73;;;1.33;;
9178;SDS011;4624;48.126;11.546;2023-02-01T09:55:47;1.13;;;1.03;;
9178;SDS011;4624;48.126;11.546;2023-02-01T09:58:16;1.33;;;1.23;;
9178;SDS011;4624;48.126;11.546;2023-02-01T10:00:51;2.37;;;1.30;;
9178;SDS011;4624;48.126;11.546;2023-02-01T10:03:21;5.00;;;1.63;;
9178;SDS011;4624;48.126;11.546;2023-02-01T10:06:04;2.43;;;1.40;;
9178;SDS011;4624;48.126;11.546;2023-02-01T10:08:46;2.10;;;1.30;;
9178;SDS011;4624;48.126;11.546;2023-02-01T10:11:32;2.73;;;1.33;;
9178;SDS011;4624;48.126;11.546;2023-02-01T10:14:16;1.87;;;1.50;;
9178;SDS011;4624;48.126;11.546;2023-02-01T10:16:56;2.27;;;1.53;;
9178;SDS011;4624;48.126;11.546;2023-02-01T10:19:33;1.27;;;0.90;;
9178;SDS011;4624;48.126;11.546;2023-02-01T10:22:09;4.00;;;1.43;;
9178;SDS011;4624;48.126;11.546;2023-02-01T10:24:41;4.80;;;1.70;;
9178;SDS011;4624;48.126;11.546;2023-02-01T10:27:13;3.50;;;1.57;;
9178;SDS011;4624;48.126;11.546;2023-02-01T10:29:43;3.93;;;1.50;;
9178;SDS011;4624;48.126;11.546;2023-02-01T10:32:14;1.40;;;1.30;;
9178;SDS011;4624;48.126;11.546;2023-02-01T10:34:42;4.93;;;1.37;;
9178;SDS011;4624;48.126;11.546;2023-02-01T10:37:25;6.77;;;1.63;;
9178;SDS011;4624;48.126;11.546;2023-02-01T10:39:54;2.53;;;1.53;;
9178;SDS011;4624;48.126;11.546;2023-02-01T10:42:24;1.47;;;1.30;;
9178;SDS011;4624;48.126;11.546;2023-02-01T10:44:52;2.93;;;1.30;;
9178;SDS011;4624;48.126;11.546;2023-02-01T10:47:22;1.30;;;1.20;;
9178;SDS011;4624;48.126;11.546;2023-02-01T10:49:49;1.10;;;0.97;;
9178;SDS011;4624;48.126;11.546;2023-02-01T10:52:23;1.40;;;1.30;;
9178;SDS011;4624;48.126;11.546;2023-02-01T10:58:06;1.73;;;1.00;;
9178;SDS011;4624;48.126;11.546;2023-02-01T11:00:37;2.60;;;1.40;;
9178;SDS011;4624;48.126;11.546;2023-02-01T11:05:59;1.40;;;1.23;;
9178;SDS011;4624;48.126;11.546;2023-02-01T11:08:28;3.60;;;1.70;;
9178;SDS011;4624;48.126;11.546;2023-02-01T11:10:57;3.93;;;1.70;;
9178;SDS011;4624;48.126;11.546;2023-02-01T11:13:27;1.57;;;1.30;;
9178;SDS011;4624;48.126;11.546;2023-02-01T11:15:57;4.70;;;1.53;;
9178;SDS011;4624;48.126;11.546;2023-02-01T11:18:25;2.70;;;1.60;;
9178;SDS011;4624;48.126;11.546;2023-02-01T11:20:53;2.60;;;1.87;;
9178;SDS011;4624;48.126;11.546;2023-02-01T11:23:21;1.67;;;1.50;;
9178;SDS011;4624;48.126;11.546;2023-02-01T11:25:53;2.00;;;1.73;;
9178;SDS011;4624;48.126;11.546;2023-02-01T11:28:22;2.30;;;1.70;;
9178;SDS011;4624;48.126;11.546;2023-02-01T11:30:52;3.97;;;1.80;;
9178;SDS011;4624;48.126;11.546;2023-02-01T11:33:24;1.90;;;1.80;;
9178;SDS011;4624;48.126;11.546;2023-02-01T11:35:54;2.07;;;1.43;;
9178;SDS011;4624;48.126;11.546;2023-02-01T11:38:28;2.40;;;1.90;;
9178;SDS011;4624;48.126;11.546;2023-02-01T11:41:10;4.63;;;1.50;;
9178;SDS011;4624;48.126;11.546;2023-02-01T11:43:49;3.07;;;1.57;;
9178;SDS011;4624;48.126;11.546;2023-02-01T11:46:18;2.17;;;1.60;;
9178;SDS011;4624;48.126;11.546;2023-02-01T11:48:50;3.40;;;1.80;;
9178;SDS011;4624;48.126;11.546;2023-02-01T11:51:20;2.47;;;1.73;;
9178;SDS011;4624;48.126;11.546;2023-02-01T11:54:02;1.50;;;1.40;;
9178;SDS011;4624;48.126;11.546;2023-02-01T11:56:43;2.50;;;1.97;;
9178;SDS011;4624;48.126;11.546;2023-02-01T11:59:19;4.30;;;1.77;;
9178;SDS011;4624;48.126;11.546;2023-02-01T12:02:03;2.03;;;1.50;;
9178;SDS011;4624;48.126;11.546;2023-02-01T12:07:38;3.97;;;2.00;;
9178;SDS011;4624;48.126;11.546;2023-02-01T12:10:20;6.30;;;1.90;;
9178;SDS011;4624;48.126;11.546;2023-02-01T12:12:58;3.73;;;2.00;;
9178;SDS011;4624;48.126;11.546;2023-02-01T12:15:37;3.17;;;1.97;;
9178;SDS011;4624;48.126;11.546;2023-02-01T12:18:20;4.13;;;1.70;;
9178;SDS011;4624;48.126;11.546;2023-02-01T12:21:05;2.97;;;1.80;;
9178;SDS011;4624;48.126;11.546;2023-02-01T12:23:48;4.17;;;1.40;;
9178;SDS011;4624;48.126;11.546;2023-02-01T12:29:47;5.40;;;1.63;;
9178;SDS011;4624;48.126;11.546;2023-02-01T12:32:24;2.93;;;1.80;;
9178;SDS011;4624;48.126;11.546;2023-02-01T12:35:11;4.10;;;1.80;;
9178;SDS011;4624;48.126;11.546;2023-02-01T12:37:51;3.87;;;2.23;;
9178;SDS011;4624;48.126;11.546;2023-02-01T12:40:34;5.00;;;1.63;;
9178;SDS011;4624;48.126;11.546;2023-02-01T12:43:11;5.90;;;1.90;;
9178;SDS011;4624;48.126;11.546;2023-02-01T12:45:49;2.77;;;1.70;;
9178;SDS011;4624;48.126;11.546;2023-02-01T12:48:23;4.20;;;1.70;;
9178;SDS011;4624;48.126;11.546;2023-02-01T12:50:54;3.73;;;1.77;;
9178;SDS011;4624;48.126;11.546;2023-02-01T12:53:25;3.47;;;1.73;;
9178;SDS011;4624;48.126;11.546;2023-02-01T12:55:56;3.93;;;1.90;;
9178;SDS011;4624;48.126;11.546;2023-02-01T12:58:30;2.90;;;1.93;;
9178;SDS011;4624;48.126;11.546;2023-02-01T13:01:03;4.50;;;1.70;;
9178;SDS011;4624;48.126;11.546;2023-02-01T13:03:36;3.67;;;1.40;;
9178;SDS011;4624;48.126;11.546;2023-02-01T13:06:06;3.77;;;1.67;;
9178;SDS011;4624;48.126;11.546;2023-02-01T13:08:40;3.57;;;1.67;;
9178;SDS011;4624;48.126;11.546;2023-02-01T13:11:12;5.47;;;1.30;;
9178;SDS011;4624;48.126;11.546;2023-02-01T13:13:45;4.90;;;1.50;;
9178;SDS011;4624;48.126;11.546;2023-02-01T13:16:21;4.63;;;1.77;;
9178;SDS011;4624;48.126;11.546;2023-02-01T13:18:54;2.60;;;1.40;;
9178;SDS011;4624;48.126;11.546;2023-02-01T13:21:26;4.67;;;1.53;;
9178;SDS011;4624;48.126;11.546;2023-02-01T13:23:57;1.27;;;1.17;;
9178;SDS011;4624;48.126;11.546;2023-02-01T13:26:24;4.20;;;1.70;;
9178;SDS011;4624;48.126;11.546;2023-02-01T13:28:52;4.87;;;1.60;;
9178;SDS011;4624;48.126;11.546;2023-02-01T13:31:42;1.53;;;1.43;;
9178;SDS011;4624;48.126;11.546;2023-02-01T13:34:38;4.23;;;1.53;;
9178;SDS011;4624;48.126;11.546;2023-02-01T13:43:10;2.57;;;1.70;;
9178;SDS011;4624;48.126;11.546;2023-02-01T13:45:42;6.03;;;1.60;;
9178;SDS011;4624;48.126;11.546;2023-02-01T13:48:21;4.00;;;1.50;;
9178;SDS011;4624;48.126;11.546;2023-02-01T13:50:52;2.07;;;1.70;;
9178;SDS011;4624;48.126;11.546;2023-02-01T13:53:23;2.23;;;1.50;;
9178;SDS011;4624;48.126;11.546;2023-02-01T13:55:56;2.50;;;1.50;;
9178;SDS011;4624;48.126;11.546;2023-02-01T13:58:30;1.63;;;1.40;;
9178;SDS011;4624;48.126;11.546;2023-02-01T14:07:16;1.20;;;1.10;;
9178;SDS011;4624;48.126;11.546;2023-02-01T14:09:47;1.97;;;1.80;;
9178;SDS011;4624;48.126;11.546;2023-02-01T14:15:17;2.17;;;1.30;;
9178;SDS011;4624;48.126;11.546;2023-02-01T14:17:47;2.30;;;1.60;;
9178;SDS011;4624;48.126;11.546;2023-02-01T14:23:21;1.47;;;1.37;;
9178;SDS011;4624;48.126;11.546;2023-02-01T14:26:06;2.60;;;1.43;;
9178;SDS011;4624;48.126;11.546;2023-02-01T14:28:46;3.23;;;1.37;;
9178;SDS011;4624;48.126;11.546;2023-02-01T14:31:27;2.47;;;1.40;;
9178;SDS011;4624;48.126;11.546;2023-02-01T14:34:18;1.50;;;1.23;;
9178;SDS011;4624;48.126;11.546;2023-02-01T14:36:57;2.27;;;1.30;;
9178;SDS011;4624;48.126;11.546;2023-02-01T14:39:28;2.90;;;1.40;;
9178;SDS011;4624;48.126;11.546;2023-02-01T14:41:59;3.23;;;1.37;;
9178;SDS011;4624;48.126;11.546;2023-02-01T14:44:31;3.97;;;1.50;;
9178;SDS011;4624;48.126;11.546;2023-02-01T14:47:03;3.97;;;1.57;;
9178;SDS011;4624;48.126;11.546;2023-02-01T14:49:37;1.53;;;1.20;;
9178;SDS011;4624;48.126;11.546;2023-02-01T14:52:09;1.90;;;1.10;;
9178;SDS011;4624;48.126;11.546;2023-02-01T14:54:43;2.70;;;1.77;;
9178;SDS011;4624;48.126;11.546;2023-02-01T14:57:15;2.87;;;1.30;;
9178;SDS011;4624;48.126;11.546;2023-02-01T14:59:45;3.73;;;1.17;;
9178;SDS011;4624;48.126;11.546;2023-02-01T15:02:17;3.77;;;1.33;;
9178;SDS011;4624;48.126;11.546;2023-02-01T15:04:47;2.73;;;1.33;;
9178;SDS011;4624;48.126;11.546;2023-02-01T15:07:21;1.53;;;1.40;;
9178;SDS011;4624;48.126;11.546;2023-02-01T15:09:53;1.97;;;1.20;;
9178;SDS011;4624;48.126;11.546;2023-02-01T15:12:24;2.20;;;1.50;;
9178;SDS011;4624;48.126;11.546;2023-02-01T15:15:12;2.27;;;1.20;;
9178;SDS011;4624;48.126;11.546;2023-02-01T15:17:42;2.30;;;1.20;;
9178;SDS011;4624;48.126;11.546;2023-02-01T15:20:17;1.93;;;1.07;;
9178;SDS011;4624;48.126;11.546;2023-02-01T15:22:52;2.90;;;1.00;;
9178;SDS011;4624;48.126;11.546;2023-02-01T15:25:22;2.63;;;1.30;;
9178;SDS011;4624;48.126;11.546;2023-02-01T15:27:50;5.43;;;1.20;;
9178;SDS011;4624;48.126;11.546;2023-02-01T15:30:18;3.13;;;1.00;;
9178;SDS011;4624;48.126;11.546;2023-02-01T15:32:47;2.67;;;1.20;;
9178;SDS011;4624;48.126;11.546;2023-02-01T15:38:18;2.90;;;1.20;;
9178;SDS011;4624;48.126;11.546;2023-02-01T15:41:03;7.17;;;1.20;;
9178;SDS011;4624;48.126;11.546;2023-02-01T15:43:38;2.03;;;1.20;;
9178;SDS011;4624;48.126;11.546;2023-02-01T15:46:08;3.30;;;1.23;;
9178;SDS011;4624;48.126;11.546;2023-02-01T15:48:38;3.97;;;1.50;;
9178;SDS011;4624;48.126;11.546;2023-02-01T15:51:13;3.70;;;1.40;;
9178;SDS011;4624;48.126;11.546;2023-02-01T15:53:46;3.43;;;1.47;;
9178;SDS011;4624;48.126;11.546;2023-02-01T15:56:17;2.13;;;1.10;;
9178;SDS011;4624;48.126;11.546;2023-02-01T15:58:50;3.20;;;1.50;;
9178;SDS011;4624;48.126;11.546;2023-02-01T16:01:20;2.53;;;1.37;;
9178;SDS011;4624;48.126;11.546;2023-02-01T16:03:47;2.27;;;1.03;;